Alexandria Municipal Airport/Chandler Field

Airport
ICAO code: 
KAXN
IATA Code: 
AXN
Summary
ICAO Region: 
NAM
Territory: 
Location: 
Alexandria, Douglas County, Minnesota
Serving: 
Alexandria
Elevation: 
1425 ft
Coordinates: 
Aerial View: 
45° 51' 55.326" N, 95° 23' 40.464" W
Airport CFIT: 
Altimeter Temperature Error Correction
Airport GND: 
Aircraft Ground De/Anti Icing
Airport RE: 
Landing on Contaminated Runways
Metar
Observation
KAXN 271953Z AUTO 31013KT 10SM CLR 04/M03 A2996 RMK AO2 SLP163 T00441033
Station
Alexandria, Chandler Field
Date/Time
2021-11-27 19:53:00
Wind direction
310°
Wind speed
13 kts
Lowest cloud amount
n/a
Temperature
4.4°C
Dew point
-3.3°C
Humidity
57%
Weather condition
n/a

Description

Alexandria Municipal Airport, also known as Chandler Field, is a city-owned public-use airport located 2 nm southwest of the central business district of Alexandria, a city in Douglas County, Minnesota.

Climatology

Humid Continental climate (Köppen climate classification Dfb) - Variable weather patterns and a large seasonal temperature variance. Summers are often warm and humid with frequent thunderstorms and winters can be very cold with frequent snowfall and persistent snow cover.

Runways

Designator Length Width Surface Rops
4/22 1249 23 ASP Yes/Yes
13/31 1554 30 ASP Yes/Yes
Airport map: 
Aerial View: 

SKYbrary Partners:

Safety knowledge contributed by: